Time;durP1;ratioP1;P1;durP2;ratioP2;P2;SDS_P1;SDS_P2;PMS_P1;PMS_P2;Temp;Humidity;BMP_temperature;BMP_pressure;BME280_temperature;BME280_humidity;BME280_pressure;Samples;Min_cycle;Max_cycle;Signal;HPM_P1;HPM_P2
2020/12/23 00:00:54;;;;;;;7.05;6.35;;;10.70;96.80;;;;;;2089681;28;20466;-72
2020/12/23 00:01:59;;;;;;;6.93;6.20;;;10.70;96.80;;;;;;2090113;28;20396;-73
2020/12/23 00:03:00;;;;;;;7.82;6.40;;;10.70;96.80;;;;;;2090212;28;20112;-72
2020/12/23 00:04:00;;;;;;;7.78;6.22;;;10.70;96.80;;;;;;2090121;28;20052;-71
2020/12/23 00:05:04;;;;;;;6.82;6.10;;;10.70;96.90;;;;;;2090199;28;20068;-71
2020/12/23 00:06:05;;;;;;;6.85;6.15;;;10.70;97.30;;;;;;2090237;28;20118;-70
2020/12/23 00:07:06;;;;;;;7.18;6.38;;;10.70;97.00;;;;;;2090029;28;20462;-70
2020/12/23 00:08:07;;;;;;;7.60;6.57;;;10.70;97.00;;;;;;2087564;28;20427;-71
2020/12/23 00:09:08;;;;;;;7.90;6.90;;;10.70;97.10;;;;;;2081446;28;20140;-70
2020/12/23 00:10:09;;;;;;;7.97;6.93;;;10.60;97.10;;;;;;2081901;28;20052;-71
2020/12/23 00:11:09;;;;;;;7.47;6.55;;;10.60;97.10;;;;;;2081912;28;20127;-70
2020/12/23 00:12:11;;;;;;;7.55;6.72;;;10.60;97.10;;;;;;2081714;28;20021;-70
2020/12/23 00:13:12;;;;;;;8.13;7.15;;;10.60;97.20;;;;;;2081985;28;20378;-71
2020/12/23 00:14:12;;;;;;;8.25;6.97;;;10.50;97.20;;;;;;2081867;28;20053;-71
2020/12/23 00:15:13;;;;;;;7.63;6.82;;;10.50;97.30;;;;;;2081719;28;20477;-71
2020/12/23 00:16:13;;;;;;;7.68;6.88;;;10.50;97.40;;;;;;2081888;28;20029;-71
2020/12/23 00:17:20;;;;;;;8.57;7.30;;;10.50;97.40;;;;;;2082057;28;20083;-72
2020/12/23 00:18:21;;;;;;;9.55;7.35;;;10.50;97.50;;;;;;2082037;28;20040;-71
2020/12/23 00:19:21;;;;;;;9.20;7.28;;;10.50;97.60;;;;;;2081383;28;20029;-71
2020/12/23 00:20:22;;;;;;;8.88;7.00;;;10.40;97.60;;;;;;2081917;28;20033;-71
2020/12/23 00:21:23;;;;;;;7.95;7.15;;;10.40;97.70;;;;;;2081423;28;20052;-71
2020/12/23 00:22:24;;;;;;;8.68;7.22;;;10.40;97.80;;;;;;2081691;28;20040;-71
2020/12/23 00:23:25;;;;;;;7.75;6.95;;;10.40;97.80;;;;;;2081719;28;20033;-71
2020/12/23 00:24:26;;;;;;;8.20;6.70;;;10.40;97.90;;;;;;2081026;28;20065;-71
2020/12/23 00:25:26;;;;;;;8.70;7.38;;;10.40;98.00;;;;;;2072876;28;20034;-71
2020/12/23 00:26:27;;;;;;;9.75;7.60;;;10.40;98.00;;;;;;2081116;28;20034;-71
2020/12/23 00:27:28;;;;;;;8.68;7.50;;;10.40;98.00;;;;;;2081627;28;20057;-71
2020/12/23 00:28:29;;;;;;;10.30;7.70;;;10.40;98.00;;;;;;2081690;28;20397;-71
2020/12/23 00:29:30;;;;;;;8.25;7.07;;;10.40;98.40;;;;;;2081188;28;20021;-71
2020/12/23 00:30:30;;;;;;;8.50;7.30;;;10.40;98.20;;;;;;2085789;28;20113;-71
2020/12/23 00:31:31;;;;;;;9.02;7.40;;;10.40;98.20;;;;;;2088953;28;20512;-71
2020/12/23 00:32:32;;;;;;;8.75;7.20;;;10.40;98.20;;;;;;2081622;28;20033;-71
2020/12/23 00:33:33;;;;;;;8.23;7.13;;;10.40;98.30;;;;;;2081470;28;20044;-71
2020/12/23 00:34:33;;;;;;;7.72;6.72;;;10.40;98.20;;;;;;2080874;28;20068;-71
2020/12/23 00:35:34;;;;;;;9.27;7.40;;;10.40;98.30;;;;;;2081065;28;20056;-72
2020/12/23 00:36:35;;;;;;;9.32;7.53;;;10.40;98.30;;;;;;2089168;28;20086;-70
2020/12/23 00:37:35;;;;;;;8.68;7.35;;;10.30;98.30;;;;;;2089203;28;20056;-70
2020/12/23 00:38:36;;;;;;;9.10;7.80;;;10.30;98.40;;;;;;2089537;28;20167;-71
2020/12/23 00:39:37;;;;;;;9.50;7.78;;;10.30;98.40;;;;;;2088813;28;20032;-71
2020/12/23 00:40:37;;;;;;;9.25;7.40;;;10.30;98.40;;;;;;2089328;28;20036;-71
2020/12/23 00:41:43;;;;;;;9.20;7.80;;;10.30;98.40;;;;;;2080805;28;20044;-72
2020/12/23 00:42:44;;;;;;;9.57;7.90;;;10.30;98.80;;;;;;2089229;28;20108;-71
2020/12/23 00:43:44;;;;;;;8.70;7.68;;;10.30;98.50;;;;;;2089610;28;20028;-71
2020/12/23 00:44:45;;;;;;;9.63;7.68;;;10.30;98.60;;;;;;2089776;28;20024;-70
2020/12/23 00:45:46;;;;;;;9.73;7.70;;;10.20;98.60;;;;;;2089770;28;20013;-73
2020/12/23 00:46:46;;;;;;;8.10;6.97;;;10.20;98.90;;;;;;2081411;28;20637;-71
2020/12/23 00:47:47;;;;;;;8.73;7.80;;;10.20;98.70;;;;;;2081549;28;20155;-70
2020/12/23 00:48:48;;;;;;;9.73;8.13;;;10.20;98.70;;;;;;2081195;28;20026;-70
2020/12/23 00:49:49;;;;;;;8.30;7.25;;;10.20;98.80;;;;;;2080904;28;20034;-72
2020/12/23 00:50:49;;;;;;;8.63;7.22;;;10.20;98.80;;;;;;2081022;28;20512;-71
2020/12/23 00:51:50;;;;;;;8.57;7.38;;;10.20;98.80;;;;;;2080555;28;20026;-71
2020/12/23 00:52:51;;;;;;;9.00;7.63;;;10.20;98.80;;;;;;2072671;28;20037;-71
2020/12/23 00:53:52;;;;;;;10.32;8.23;;;10.20;98.80;;;;;;2080797;28;20121;-71
2020/12/23 00:54:53;;;;;;;10.23;8.02;;;10.20;98.80;;;;;;2089124;28;20044;-72
2020/12/23 00:55:59;;;;;;;9.88;8.32;;;10.20;98.90;;;;;;2088299;28;20080;-72
2020/12/23 00:57:00;;;;;;;10.25;8.30;;;10.20;98.90;;;;;;2080794;28;20069;-72
2020/12/23 00:58:01;;;;;;;9.90;8.40;;;10.20;99.00;;;;;;2081412;28;20033;-72
2020/12/23 00:59:01;;;;;;;10.48;8.10;;;10.20;99.10;;;;;;2088547;28;20048;-72
2020/12/23 01:00:05;;;;;;;10.25;8.10;;;10.20;99.10;;;;;;2089018;28;20037;-71
2020/12/23 01:01:06;;;;;;;9.32;7.97;;;10.20;99.10;;;;;;2089049;28;20027;-72
2020/12/23 01:02:06;;;;;;;11.90;8.95;;;10.20;99.20;;;;;;2088745;28;20041;-72
2020/12/23 01:03:07;;;;;;;19.92;12.38;;;10.20;99.20;;;;;;2072544;28;20045;-72
2020/12/23 01:04:08;;;;;;;24.50;14.27;;;10.20;99.30;;;;;;2080822;28;20029;-72
2020/12/23 01:05:08;;;;;;;28.80;15.13;;;10.20;99.30;;;;;;2081404;28;20445;-72
2020/12/23 01:06:10;;;;;;;24.13;14.30;;;10.20;99.30;;;;;;2081464;28;20036;-72
2020/12/23 01:07:10;;;;;;;25.98;14.68;;;10.20;99.30;;;;;;2081344;28;20171;-72
2020/12/23 01:08:11;;;;;;;23.48;14.10;;;10.30;99.40;;;;;;2080896;28;20030;-72
2020/12/23 01:09:12;;;;;;;27.02;14.38;;;10.30;99.30;;;;;;2080450;28;20032;-71
2020/12/23 01:10:12;;;;;;;27.40;15.05;;;10.30;99.40;;;;;;2081138;28;20037;-72
2020/12/23 01:11:13;;;;;;;24.05;14.43;;;10.30;99.40;;;;;;2080866;28;20658;-72
2020/12/23 01:12:14;;;;;;;27.35;15.80;;;10.30;99.30;;;;;;2081328;28;20420;-71
2020/12/23 01:13:15;;;;;;;28.00;16.15;;;10.30;99.30;;;;;;2081471;28;20385;-72
2020/12/23 01:14:17;;;;;;;26.48;15.80;;;10.30;99.30;;;;;;2081365;28;20036;-71
2020/12/23 01:15:17;;;;;;;27.60;15.98;;;10.30;99.40;;;;;;2080669;28;20064;-71
2020/12/23 01:16:22;;;;;;;25.50;14.93;;;10.30;99.40;;;;;;2080807;28;20055;-71
2020/12/23 01:17:23;;;;;;;23.75;14.23;;;10.30;99.40;;;;;;2081428;28;20057;-72
2020/12/23 01:18:24;;;;;;;23.83;14.38;;;10.30;99.40;;;;;;2081314;28;20034;-72
2020/12/23 01:19:25;;;;;;;21.27;13.50;;;10.30;99.40;;;;;;2080926;28;20032;-71
2020/12/23 01:20:25;;;;;;;20.10;13.30;;;10.30;99.40;;;;;;2080653;28;20021;-71
2020/12/23 01:21:26;;;;;;;19.80;13.18;;;10.30;99.40;;;;;;2080414;28;20061;-72
2020/12/23 01:22:27;;;;;;;19.00;12.52;;;10.30;99.40;;;;;;2081215;28;20036;-72
2020/12/23 01:23:27;;;;;;;18.88;13.10;;;10.30;99.30;;;;;;2080216;28;20026;-71
2020/12/23 01:24:28;;;;;;;18.00;12.68;;;10.30;99.30;;;;;;2080699;28;20017;-71
2020/12/23 01:25:29;;;;;;;17.88;12.00;;;10.30;99.30;;;;;;2081145;28;20085;-72
2020/12/23 01:26:30;;;;;;;16.88;12.27;;;10.30;99.30;;;;;;2081295;28;20037;-71
2020/12/23 01:27:31;;;;;;;17.88;12.40;;;10.30;99.30;;;;;;2081149;28;20394;-72
2020/12/23 01:28:31;;;;;;;17.58;11.85;;;10.30;99.30;;;;;;2080478;28;20022;-72
2020/12/23 01:29:32;;;;;;;16.60;11.40;;;10.20;99.30;;;;;;2080162;28;20136;-71
2020/12/23 01:30:33;;;;;;;16.58;11.52;;;10.20;99.30;;;;;;2086481;28;20035;-72
2020/12/23 01:31:34;;;;;;;16.25;11.00;;;10.20;99.30;;;;;;2089155;28;20036;-72
2020/12/23 01:32:34;;;;;;;16.67;11.27;;;10.20;99.40;;;;;;2089489;28;20091;-72
2020/12/23 01:33:35;;;;;;;16.15;11.57;;;10.20;99.40;;;;;;2089240;28;20109;-69
2020/12/23 01:34:36;;;;;;;16.33;11.38;;;10.20;99.70;;;;;;2089534;28;20021;-72
2020/12/23 01:35:36;;;;;;;17.88;11.82;;;10.20;99.30;;;;;;2088797;28;20032;-71
2020/12/23 01:36:37;;;;;;;16.90;11.68;;;10.20;99.40;;;;;;2088945;28;20166;-71
2020/12/23 01:37:38;;;;;;;16.77;11.38;;;10.10;99.40;;;;;;2088903;28;20160;-72
2020/12/23 01:38:39;;;;;;;15.27;11.68;;;10.20;99.50;;;;;;2089713;28;20037;-71
2020/12/23 01:39:39;;;;;;;17.10;12.00;;;10.10;99.40;;;;;;2089044;28;20025;-72
2020/12/23 01:40:40;;;;;;;16.10;11.50;;;10.10;99.40;;;;;;2089537;28;20025;-72
2020/12/23 01:41:41;;;;;;;17.10;11.65;;;10.10;99.40;;;;;;2089265;28;20025;-72
2020/12/23 01:42:41;;;;;;;18.65;12.95;;;10.10;99.40;;;;;;2088765;28;20419;-72
2020/12/23 01:43:55;;;;;;;19.25;13.43;;;10.10;99.40;;;;;;2088677;28;20017;-71
2020/12/23 01:44:55;;;;;;;20.08;13.82;;;10.10;99.50;;;;;;2089492;28;20032;-72
2020/12/23 01:45:56;;;;;;;19.38;13.32;;;10.10;99.60;;;;;;2089461;28;20024;-72
2020/12/23 01:46:59;;;;;;;17.90;12.90;;;10.10;99.70;;;;;;2089410;28;20030;-72
2020/12/23 01:47:59;;;;;;;16.63;12.05;;;10.10;99.80;;;;;;2089415;28;20543;-72
2020/12/23 01:49:08;;;;;;;16.40;11.93;;;10.10;99.80;;;;;;2088886;28;20021;-72
2020/12/23 01:50:09;;;;;;;18.58;13.05;;;10.10;99.80;;;;;;2089407;28;20431;-72
2020/12/23 01:51:09;;;;;;;18.98;13.30;;;10.10;99.80;;;;;;2089198;28;20120;-71
2020/12/23 01:52:10;;;;;;;19.30;13.50;;;10.10;99.90;;;;;;2089230;28;20017;-72
2020/12/23 01:53:12;;;;;;;19.10;13.02;;;10.20;99.90;;;;;;2089236;28;20373;-71
2020/12/23 01:54:13;;;;;;;17.92;12.55;;;10.10;99.90;;;;;;2089265;28;20049;-72
2020/12/23 01:55:14;;;;;;;15.38;11.52;;;10.20;99.90;;;;;;2089344;28;20025;-71
2020/12/23 01:56:20;;;;;;;16.80;12.20;;;10.10;99.90;;;;;;2089378;28;20036;-72
2020/12/23 01:57:21;;;;;;;14.85;11.75;;;10.10;99.90;;;;;;2088697;28;20100;-73
2020/12/23 01:58:21;;;;;;;15.18;11.93;;;10.20;99.90;;;;;;2088648;28;20033;-72
2020/12/23 01:59:23;;;;;;;15.82;11.90;;;10.10;99.90;;;;;;2088838;28;20029;-71
2020/12/23 02:00:23;;;;;;;15.32;11.52;;;10.10;99.90;;;;;;2088638;28;20029;-71
2020/12/23 02:01:30;;;;;;;16.20;11.65;;;10.10;99.90;;;;;;2088336;28;20033;-72
2020/12/23 02:02:33;;;;;;;14.52;10.65;;;10.10;99.90;;;;;;2080518;28;20044;-72
2020/12/23 02:03:34;;;;;;;14.40;11.27;;;10.10;99.90;;;;;;2064630;28;20809;-71
2020/12/23 02:04:34;;;;;;;13.93;10.60;;;10.10;99.90;;;;;;2080472;28;20104;-71
2020/12/23 02:05:36;;;;;;;14.63;11.15;;;10.10;99.90;;;;;;2088598;28;20033;-72
2020/12/23 02:06:37;;;;;;;14.48;11.00;;;10.10;99.90;;;;;;2088790;28;20035;-72
2020/12/23 02:07:38;;;;;;;13.93;10.93;;;10.10;99.90;;;;;;2089528;28;20036;-72
2020/12/23 02:08:42;;;;;;;14.45;11.18;;;10.10;99.90;;;;;;2082533;28;20029;-71
2020/12/23 02:09:48;;;;;;;15.25;11.45;;;10.10;99.90;;;;;;2080849;28;20167;-72
2020/12/23 02:10:50;;;;;;;16.92;11.35;;;10.10;99.90;;;;;;2080972;28;20072;-72
2020/12/23 02:11:51;;;;;;;16.42;11.50;;;10.10;99.90;;;;;;2080570;28;20128;-72
2020/12/23 02:12:53;;;;;;;17.20;12.15;;;10.10;99.90;;;;;;2080435;28;20056;-71
2020/12/23 02:13:54;;;;;;;17.65;12.40;;;10.10;99.90;;;;;;2080184;28;20029;-71
2020/12/23 02:14:55;;;;;;;18.42;13.40;;;10.10;99.90;;;;;;2080989;28;20500;-72
2020/12/23 02:15:55;;;;;;;18.25;13.07;;;10.10;99.90;;;;;;2081004;28;20129;-71
2020/12/23 02:16:56;;;;;;;19.90;13.85;;;10.10;99.90;;;;;;2080912;28;20485;-72
2020/12/23 02:17:57;;;;;;;19.70;13.20;;;10.10;99.90;;;;;;2080910;28;20040;-72
2020/12/23 02:18:58;;;;;;;18.77;12.82;;;10.00;99.90;;;;;;2080311;28;20167;-71
2020/12/23 02:19:58;;;;;;;19.52;13.10;;;10.00;99.90;;;;;;2080846;28;20531;-71
2020/12/23 02:21:00;;;;;;;18.00;12.55;;;10.00;99.90;;;;;;2080910;28;20040;-72
2020/12/23 02:22:01;;;;;;;17.38;12.23;;;10.00;99.90;;;;;;2079772;28;20078;-72
2020/12/23 02:23:02;;;;;;;17.02;11.98;;;10.10;99.90;;;;;;2080134;28;20117;-71
2020/12/23 02:24:03;;;;;;;16.23;12.32;;;10.00;99.90;;;;;;2080726;28;20476;-72
2020/12/23 02:25:05;;;;;;;17.30;12.65;;;10.00;99.90;;;;;;2080757;28;20072;-72
2020/12/23 02:26:05;;;;;;;16.85;12.25;;;10.00;99.90;;;;;;2080649;28;20029;-72
2020/12/23 02:27:06;;;;;;;15.32;11.75;;;10.00;99.90;;;;;;2080777;28;20037;-72
2020/12/23 02:28:07;;;;;;;15.20;11.82;;;10.00;99.90;;;;;;2080690;28;20556;-72
2020/12/23 02:29:08;;;;;;;15.27;11.55;;;10.00;99.90;;;;;;2080105;28;20053;-72
2020/12/23 02:30:10;;;;;;;15.52;11.63;;;10.00;99.90;;;;;;2082495;28;20385;-71
2020/12/23 02:31:10;;;;;;;16.48;12.00;;;10.00;99.90;;;;;;2088969;28;20104;-71
2020/12/23 02:32:12;;;;;;;15.88;11.18;;;10.00;99.90;;;;;;2088582;28;20437;-73
2020/12/23 02:33:12;;;;;;;15.32;12.00;;;10.00;99.90;;;;;;2088904;28;20033;-71
2020/12/23 02:34:13;;;;;;;16.52;12.70;;;10.00;99.90;;;;;;2088157;28;20025;-71
2020/12/23 02:35:13;;;;;;;22.15;15.43;;;10.00;99.90;;;;;;2080204;28;20037;-71
2020/12/23 02:36:14;;;;;;;20.35;14.82;;;10.00;99.90;;;;;;2088385;28;20028;-71
2020/12/23 02:37:17;;;;;;;19.88;14.85;;;10.00;99.90;;;;;;2088935;28;20033;-72
2020/12/23 02:38:17;;;;;;;19.25;14.23;;;10.00;99.90;;;;;;2088351;28;20472;-72
2020/12/23 02:39:18;;;;;;;18.77;14.02;;;10.00;99.90;;;;;;2087728;28;20033;-71
2020/12/23 02:40:19;;;;;;;16.15;12.40;;;9.90;99.90;;;;;;2088981;28;20423;-72
2020/12/23 02:41:20;;;;;;;15.13;11.98;;;9.90;99.90;;;;;;2088592;28;20411;-71
2020/12/23 02:42:23;;;;;;;15.50;12.15;;;9.90;99.90;;;;;;2088876;28;20055;-71
2020/12/23 02:43:23;;;;;;;15.43;12.07;;;9.90;99.90;;;;;;2088885;28;20033;-71
2020/12/23 02:44:25;;;;;;;17.35;13.30;;;9.90;99.90;;;;;;2088142;28;20047;-72
2020/12/23 02:45:25;;;;;;;19.42;13.70;;;9.90;99.90;;;;;;2088276;28;20040;-71
2020/12/23 02:46:26;;;;;;;17.23;13.40;;;9.90;99.90;;;;;;2088841;28;20115;-71
2020/12/23 02:47:27;;;;;;;19.52;13.95;;;9.80;99.90;;;;;;2088123;28;20067;-72
2020/12/23 02:48:28;;;;;;;20.17;14.05;;;9.80;99.90;;;;;;2088250;28;20033;-72
2020/12/23 02:49:29;;;;;;;17.63;13.50;;;9.80;99.90;;;;;;2088624;28;20386;-71
2020/12/23 02:50:29;;;;;;;17.85;13.32;;;9.80;99.90;;;;;;2089095;28;20100;-72
2020/12/23 02:51:30;;;;;;;17.05;12.75;;;9.90;99.90;;;;;;2088780;28;20032;-72
2020/12/23 02:52:31;;;;;;;15.80;12.10;;;9.90;99.90;;;;;;2089556;28;20036;-72
2020/12/23 02:53:31;;;;;;;15.70;11.93;;;9.90;99.90;;;;;;2089426;28;20476;-72
2020/12/23 02:54:32;;;;;;;17.27;12.52;;;9.90;99.90;;;;;;2089178;28;20566;-72
2020/12/23 02:55:33;;;;;;;18.30;13.52;;;9.90;99.90;;;;;;2089413;28;20025;-72
2020/12/23 02:56:34;;;;;;;16.73;12.93;;;9.90;99.90;;;;;;2089149;28;20068;-72
2020/12/23 02:57:34;;;;;;;13.55;11.23;;;9.80;99.90;;;;;;2088502;28;20029;-73
2020/12/23 02:58:35;;;;;;;12.55;10.60;;;9.80;99.90;;;;;;2088288;28;20362;-69
2020/12/23 02:59:36;;;;;;;12.88;10.63;;;9.80;99.90;;;;;;2087539;28;20552;-72
2020/12/23 03:00:36;;;;;;;13.90;11.15;;;9.80;99.90;;;;;;2088430;28;20596;-72
2020/12/23 03:01:38;;;;;;;12.73;10.35;;;9.80;99.90;;;;;;2088478;28;20478;-71
2020/12/23 03:02:38;;;;;;;12.77;10.77;;;9.80;99.90;;;;;;2088934;28;20021;-71
2020/12/23 03:03:39;;;;;;;14.02;10.82;;;9.80;99.90;;;;;;2088422;28;20103;-72
2020/12/23 03:04:39;;;;;;;13.40;10.48;;;9.80;99.90;;;;;;2079918;28;20026;-71
2020/12/23 03:05:40;;;;;;;11.82;10.30;;;9.80;99.90;;;;;;2088140;28;20055;-72
2020/12/23 03:06:41;;;;;;;12.23;10.02;;;9.80;99.90;;;;;;2088832;28;20087;-72
2020/12/23 03:07:42;;;;;;;11.70;9.70;;;9.80;99.90;;;;;;2088764;28;20021;-72
2020/12/23 03:08:43;;;;;;;11.38;9.40;;;9.80;99.90;;;;;;2081411;28;20128;-72
2020/12/23 03:09:43;;;;;;;11.77;9.65;;;9.80;99.90;;;;;;2080098;28;20112;-71
2020/12/23 03:10:44;;;;;;;13.40;10.30;;;9.80;99.90;;;;;;2080877;28;20053;-71
2020/12/23 03:11:45;;;;;;;13.65;10.45;;;9.80;99.90;;;;;;2080418;28;20288;-71
2020/12/23 03:12:48;;;;;;;13.20;10.43;;;9.80;99.90;;;;;;2079977;28;20071;-71
2020/12/23 03:13:49;;;;;;;13.23;10.55;;;9.70;99.90;;;;;;2080423;28;20033;-72
2020/12/23 03:14:50;;;;;;;13.07;10.50;;;9.80;99.90;;;;;;2088430;28;20087;-72
2020/12/23 03:15:50;;;;;;;17.30;13.07;;;9.80;99.90;;;;;;2080656;28;20025;-72
2020/12/23 03:16:51;;;;;;;18.98;13.95;;;9.70;99.90;;;;;;2080431;28;20481;-72
2020/12/23 03:17:52;;;;;;;17.92;13.57;;;9.70;99.90;;;;;;2080614;28;20512;-72
2020/12/23 03:18:53;;;;;;;20.60;14.77;;;9.70;99.90;;;;;;2080848;28;20112;-72
2020/12/23 03:19:54;;;;;;;18.30;14.00;;;9.70;99.90;;;;;;2079982;28;20056;-72
2020/12/23 03:20:54;;;;;;;18.50;14.15;;;9.70;99.90;;;;;;2080343;28;20499;-72
2020/12/23 03:21:55;;;;;;;17.25;13.18;;;9.70;99.90;;;;;;2080309;28;20104;-72
2020/12/23 03:22:56;;;;;;;16.05;13.13;;;9.70;99.90;;;;;;2080528;28;20075;-72
2020/12/23 03:23:56;;;;;;;17.73;13.43;;;9.70;99.90;;;;;;2080286;28;20397;-73
2020/12/23 03:24:57;;;;;;;17.25;12.50;;;9.70;99.90;;;;;;2079928;28;20021;-72
2020/12/23 03:25:58;;;;;;;17.80;13.13;;;9.70;99.90;;;;;;2080123;28;20055;-70
2020/12/23 03:26:58;;;;;;;16.77;13.38;;;9.70;99.90;;;;;;2081245;28;20033;-73
2020/12/23 03:27:59;;;;;;;17.10;13.13;;;9.70;99.90;;;;;;2080170;28;20038;-71
2020/12/23 03:29:00;;;;;;;16.52;12.60;;;9.70;99.90;;;;;;2080042;28;20028;-69
2020/12/23 03:30:00;;;;;;;16.33;12.60;;;9.70;99.90;;;;;;2081466;28;20041;-71
2020/12/23 03:31:02;;;;;;;17.27;12.45;;;9.70;99.90;;;;;;2088755;28;20036;-74
2020/12/23 03:32:03;;;;;;;16.17;12.15;;;9.70;99.90;;;;;;2088503;28;20398;-72
2020/12/23 03:33:03;;;;;;;16.10;12.23;;;9.70;99.90;;;;;;2088857;28;20021;-71
2020/12/23 03:34:04;;;;;;;16.08;11.85;;;9.70;99.90;;;;;;2087543;28;20100;-70
2020/12/23 03:35:04;;;;;;;17.25;12.00;;;9.70;99.90;;;;;;2087945;28;20052;-70
2020/12/23 03:36:05;;;;;;;16.95;12.02;;;9.70;99.90;;;;;;2088631;28;20025;-70
2020/12/23 03:37:06;;;;;;;17.25;12.73;;;9.70;99.90;;;;;;2087936;28;20114;-70
2020/12/23 03:38:06;;;;;;;17.88;12.05;;;9.70;99.90;;;;;;2088002;28;20499;-70
2020/12/23 03:39:07;;;;;;;16.42;12.27;;;9.70;99.90;;;;;;2087986;28;20476;-70
2020/12/23 03:40:08;;;;;;;18.45;12.98;;;9.70;99.90;;;;;;2079414;28;20082;-70
2020/12/23 03:41:09;;;;;;;19.85;14.27;;;9.70;99.90;;;;;;2079543;28;20392;-70
2020/12/23 03:42:09;;;;;;;21.00;15.43;;;9.70;99.90;;;;;;2087352;28;20090;-70
2020/12/23 03:43:10;;;;;;;21.08;14.95;;;9.70;99.90;;;;;;2087761;28;20480;-71
2020/12/23 03:44:11;;;;;;;24.13;16.85;;;9.70;99.90;;;;;;2088364;28;20044;-72
2020/12/23 03:45:11;;;;;;;21.83;16.50;;;9.60;99.90;;;;;;2088531;28;20029;-71
2020/12/23 03:46:12;;;;;;;20.13;14.77;;;9.60;99.90;;;;;;2088427;28;20033;-72
2020/12/23 03:47:13;;;;;;;18.60;14.25;;;9.70;99.90;;;;;;2087764;28;20029;-71
2020/12/23 03:48:13;;;;;;;19.40;14.10;;;9.60;99.90;;;;;;2087926;28;20565;-71
2020/12/23 03:49:14;;;;;;;21.88;15.70;;;9.60;99.90;;;;;;2087964;28;20108;-71
2020/12/23 03:50:15;;;;;;;30.77;19.80;;;9.60;99.90;;;;;;2088442;28;20132;-72
2020/12/23 03:51:16;;;;;;;26.20;17.30;;;9.60;99.90;;;;;;2088527;28;20052;-72
2020/12/23 03:52:16;;;;;;;23.42;16.33;;;9.60;99.90;;;;;;2088442;28;20504;-72
2020/12/23 03:53:17;;;;;;;21.65;15.07;;;9.60;99.90;;;;;;2088464;28;20035;-71
2020/12/23 03:54:18;;;;;;;19.58;14.20;;;9.60;99.90;;;;;;2088307;28;20032;-71
2020/12/23 03:55:19;;;;;;;19.13;13.90;;;9.60;99.90;;;;;;2087806;28;20025;-72
2020/12/23 03:56:19;;;;;;;18.30;13.10;;;9.60;99.90;;;;;;2087772;28;20492;-71
2020/12/23 03:57:20;;;;;;;17.15;12.82;;;9.60;99.90;;;;;;2087852;28;20455;-71
2020/12/23 03:58:21;;;;;;;20.15;14.10;;;9.60;99.90;;;;;;2088479;28;20039;-72
2020/12/23 03:59:21;;;;;;;22.38;15.57;;;9.60;99.90;;;;;;2087887;28;20041;-71
2020/12/23 04:00:22;;;;;;;19.88;13.63;;;9.70;99.90;;;;;;2088516;28;20096;-71
2020/12/23 04:01:23;;;;;;;19.60;14.20;;;9.70;99.90;;;;;;2087553;28;20033;-72
2020/12/23 04:02:23;;;;;;;22.00;15.80;;;9.70;99.90;;;;;;2079557;28;20128;-72
2020/12/23 04:03:24;;;;;;;23.13;15.27;;;9.70;99.90;;;;;;2087921;28;20131;-71
2020/12/23 04:04:24;;;;;;;24.08;16.20;;;9.70;99.90;;;;;;2088398;28;20037;-71
2020/12/23 04:05:25;;;;;;;28.45;19.15;;;9.70;99.90;;;;;;2088501;28;20025;-72
2020/12/23 04:06:26;;;;;;;31.85;19.75;;;9.70;99.90;;;;;;2088504;28;20455;-70
2020/12/23 04:07:27;;;;;;;30.80;20.15;;;9.70;99.90;;;;;;2087852;28;20043;-71
2020/12/23 04:08:28;;;;;;;28.17;18.73;;;9.70;99.90;;;;;;2087737;28;20115;-71
2020/12/23 04:09:29;;;;;;;26.50;17.85;;;9.70;99.90;;;;;;2079868;28;20061;-73
2020/12/23 04:10:30;;;;;;;23.25;16.42;;;9.60;99.90;;;;;;2080333;28;20021;-72
2020/12/23 04:11:30;;;;;;;21.95;15.38;;;9.60;99.90;;;;;;2080156;28;20037;-71
2020/12/23 04:12:32;;;;;;;21.25;15.52;;;9.60;99.90;;;;;;2080344;28;20029;-73
2020/12/23 04:13:32;;;;;;;24.58;17.10;;;9.70;99.90;;;;;;2080325;28;20017;-71
2020/12/23 04:14:33;;;;;;;26.95;17.92;;;9.60;99.90;;;;;;2080378;28;20113;-71
2020/12/23 04:15:33;;;;;;;24.08;16.40;;;9.70;99.90;;;;;;2079767;28;20029;-71
2020/12/23 04:16:34;;;;;;;23.02;16.08;;;9.60;99.90;;;;;;2079856;28;20030;-70
2020/12/23 04:17:36;;;;;;;24.42;16.67;;;9.60;99.90;;;;;;2079733;28;20048;-70
2020/12/23 04:18:36;;;;;;;24.25;16.17;;;9.60;99.90;;;;;;2079942;28;20026;-71
2020/12/23 04:19:37;;;;;;;22.15;15.57;;;9.60;99.90;;;;;;2079739;28;20029;-72
2020/12/23 04:20:41;;;;;;;25.58;16.75;;;9.60;99.90;;;;;;2080356;28;20497;-71
2020/12/23 04:21:41;;;;;;;23.30;16.17;;;9.60;99.90;;;;;;2079659;28;20041;-72
2020/12/23 04:22:42;;;;;;;22.67;15.93;;;9.60;99.90;;;;;;2079723;28;20099;-70
2020/12/23 04:23:43;;;;;;;24.65;16.85;;;9.60;99.90;;;;;;2079622;28;20044;-70
2020/12/23 04:24:43;;;;;;;25.98;17.88;;;9.60;99.90;;;;;;2079617;28;20068;-71
2020/12/23 04:25:44;;;;;;;28.60;18.33;;;9.60;99.90;;;;;;2079659;28;20037;-71
2020/12/23 04:26:45;;;;;;;27.13;17.67;;;9.60;99.90;;;;;;2071681;28;20080;-71
2020/12/23 04:27:45;;;;;;;28.83;19.17;;;9.60;99.90;;;;;;2079602;28;20028;-70
2020/12/23 04:28:46;;;;;;;30.73;19.67;;;9.60;99.90;;;;;;2087947;28;20043;-70
2020/12/23 04:29:47;;;;;;;30.10;18.05;;;9.60;99.90;;;;;;2087288;28;20434;-70
2020/12/23 04:30:47;;;;;;;28.15;17.48;;;9.60;99.90;;;;;;2087413;28;20052;-70
2020/12/23 04:31:48;;;;;;;27.17;17.42;;;9.60;99.90;;;;;;2088115;28;20384;-71
2020/12/23 04:32:49;;;;;;;24.17;16.02;;;9.60;99.90;;;;;;2088517;28;20021;-70
2020/12/23 04:33:49;;;;;;;24.30;16.42;;;9.60;99.90;;;;;;2088402;28;20021;-70
2020/12/23 04:34:50;;;;;;;26.20;17.38;;;9.60;99.90;;;;;;2088343;28;20035;-70
2020/12/23 04:35:50;;;;;;;25.90;17.50;;;9.60;99.90;;;;;;2088421;28;20483;-70
2020/12/23 04:36:51;;;;;;;26.95;18.50;;;9.60;99.90;;;;;;2088459;28;20017;-69
2020/12/23 04:37:52;;;;;;;26.83;18.25;;;9.60;99.90;;;;;;2088466;28;20029;-70
2020/12/23 04:38:52;;;;;;;26.50;18.38;;;9.60;99.90;;;;;;2088255;28;20052;-71
2020/12/23 04:39:54;;;;;;;28.98;19.40;;;9.60;99.90;;;;;;2088683;28;20025;-70
2020/12/23 04:40:56;;;;;;;29.17;19.95;;;9.60;99.90;;;;;;2088898;28;20044;-71
2020/12/23 04:41:57;;;;;;;28.13;18.98;;;9.60;99.90;;;;;;2079619;28;20437;-70
2020/12/23 04:42:59;;;;;;;30.23;19.48;;;9.60;99.90;;;;;;2080014;28;20038;-71
2020/12/23 04:44:01;;;;;;;30.85;19.88;;;9.60;99.90;;;;;;2088792;28;20033;-71
2020/12/23 04:45:04;;;;;;;29.10;20.33;;;9.60;99.90;;;;;;2088869;28;20029;-70
2020/12/23 04:46:07;;;;;;;29.05;19.30;;;9.70;99.90;;;;;;2090098;28;20053;-71
2020/12/23 04:47:09;;;;;;;28.00;19.50;;;9.60;99.90;;;;;;2090754;28;20040;-71
2020/12/23 04:48:13;;;;;;;30.25;19.48;;;9.60;99.90;;;;;;2090909;28;20369;-70
2020/12/23 04:49:13;;;;;;;28.52;19.15;;;9.60;99.90;;;;;;2090404;28;20021;-69
2020/12/23 04:50:19;;;;;;;27.67;18.70;;;9.60;99.90;;;;;;2090665;28;20096;-69
2020/12/23 04:51:34;;;;;;;27.33;18.73;;;9.60;99.90;;;;;;2090594;28;20124;-71
2020/12/23 04:52:35;;;;;;;27.35;18.05;;;9.60;99.90;;;;;;2090448;28;20036;-70
2020/12/23 04:53:36;;;;;;;30.17;20.27;;;9.50;99.90;;;;;;2090412;28;20099;-71
2020/12/23 04:54:37;;;;;;;32.63;21.50;;;9.50;99.90;;;;;;2090705;28;20025;-69
2020/12/23 04:55:41;;;;;;;35.80;22.88;;;9.60;99.90;;;;;;2089931;28;20067;-72
2020/12/23 04:56:42;;;;;;;35.33;22.77;;;9.60;99.90;;;;;;2090171;28;20021;-70
2020/12/23 04:57:44;;;;;;;35.72;22.92;;;9.60;99.90;;;;;;2090920;28;20028;-70
2020/12/23 04:58:45;;;;;;;33.17;21.55;;;9.60;99.90;;;;;;2090011;28;20638;-70
2020/12/23 04:59:46;;;;;;;33.92;21.83;;;9.60;99.90;;;;;;2089695;28;20044;-71
2020/12/23 05:00:47;;;;;;;32.13;20.85;;;9.60;99.90;;;;;;2090440;28;20083;-70
2020/12/23 05:01:47;;;;;;;29.98;19.98;;;9.50;99.90;;;;;;2089742;28;20095;-72
2020/12/23 05:02:48;;;;;;;28.80;18.77;;;9.50;99.90;;;;;;2089988;28;20033;-71
2020/12/23 05:03:51;;;;;;;27.05;18.40;;;9.50;99.90;;;;;;2090169;28;20096;-73
2020/12/23 05:04:52;;;;;;;25.77;17.70;;;9.50;99.90;;;;;;2090771;28;20025;-71
2020/12/23 05:05:52;;;;;;;26.63;17.90;;;9.40;99.90;;;;;;2090482;28;20017;-71
2020/12/23 05:07:06;;;;;;;27.33;17.35;;;9.40;99.90;;;;;;2090104;28;20475;-72
2020/12/23 05:08:07;;;;;;;24.50;16.67;;;9.50;99.90;;;;;;2088569;28;20052;-71
2020/12/23 05:09:07;;;;;;;26.00;16.85;;;9.40;99.90;;;;;;2081912;28;20172;-71
2020/12/23 05:10:08;;;;;;;25.13;16.48;;;9.40;99.90;;;;;;2081976;28;20056;-71
2020/12/23 05:11:10;;;;;;;23.05;15.77;;;9.40;99.90;;;;;;2082243;28;20025;-72
2020/12/23 05:12:11;;;;;;;22.55;15.38;;;9.40;99.90;;;;;;2081998;28;20039;-72
2020/12/23 05:13:12;;;;;;;19.98;14.23;;;9.40;99.90;;;;;;2082092;28;20030;-71
2020/12/23 05:14:13;;;;;;;20.55;14.80;;;9.40;99.90;;;;;;2073231;28;20157;-70